sensor_id;sensor_type;location;lat;lon;timestamp;temperature;humidity
37232;DHT22;23125;48.156;15.954;2023-05-14T00:02:21;15.50;67.30
37232;DHT22;23125;48.156;15.954;2023-05-14T00:04:47;15.50;67.20
37232;DHT22;23125;48.156;15.954;2023-05-14T00:07:13;15.50;67.40
37232;DHT22;23125;48.156;15.954;2023-05-14T00:09:39;15.50;67.40
37232;DHT22;23125;48.156;15.954;2023-05-14T00:12:05;15.50;67.20
37232;DHT22;23125;48.156;15.954;2023-05-14T00:14:31;15.50;67.20
37232;DHT22;23125;48.156;15.954;2023-05-14T00:16:57;15.50;67.20
37232;DHT22;23125;48.156;15.954;2023-05-14T00:19:24;15.50;67.10
37232;DHT22;23125;48.156;15.954;2023-05-14T00:21:51;15.50;67.20
37232;DHT22;23125;48.156;15.954;2023-05-14T00:24:17;15.50;67.20
37232;DHT22;23125;48.156;15.954;2023-05-14T00:26:44;15.50;67.20
37232;DHT22;23125;48.156;15.954;2023-05-14T00:29:09;15.50;67.20
37232;DHT22;23125;48.156;15.954;2023-05-14T00:31:35;15.50;67.10
37232;DHT22;23125;48.156;15.954;2023-05-14T00:34:01;15.50;67.20
37232;DHT22;23125;48.156;15.954;2023-05-14T00:36:27;15.50;67.20
37232;DHT22;23125;48.156;15.954;2023-05-14T00:38:53;15.50;67.20
37232;DHT22;23125;48.156;15.954;2023-05-14T00:41:19;15.50;67.30
37232;DHT22;23125;48.156;15.954;2023-05-14T00:43:45;15.50;67.30
37232;DHT22;23125;48.156;15.954;2023-05-14T00:46:11;15.50;67.30
37232;DHT22;23125;48.156;15.954;2023-05-14T00:48:38;15.50;67.10
37232;DHT22;23125;48.156;15.954;2023-05-14T00:51:04;15.50;67.00
37232;DHT22;23125;48.156;15.954;2023-05-14T00:53:31;15.50;67.00
37232;DHT22;23125;48.156;15.954;2023-05-14T00:55:57;15.50;67.10
37232;DHT22;23125;48.156;15.954;2023-05-14T00:58:24;15.50;67.00
37232;DHT22;23125;48.156;15.954;2023-05-14T01:00:51;15.40;67.10
37232;DHT22;23125;48.156;15.954;2023-05-14T01:03:17;15.50;67.30
37232;DHT22;23125;48.156;15.954;2023-05-14T01:11:54;15.50;67.20
37232;DHT22;23125;48.156;15.954;2023-05-14T01:14:51;15.40;67.10
37232;DHT22;23125;48.156;15.954;2023-05-14T01:17:19;15.40;67.10
37232;DHT22;23125;48.156;15.954;2023-05-14T01:19:47;15.40;67.00
37232;DHT22;23125;48.156;15.954;2023-05-14T01:22:14;15.40;67.00
37232;DHT22;23125;48.156;15.954;2023-05-14T01:24:40;15.40;67.10
37232;DHT22;23125;48.156;15.954;2023-05-14T01:27:20;15.40;67.00
37232;DHT22;23125;48.156;15.954;2023-05-14T01:32:35;15.40;67.20
37232;DHT22;23125;48.156;15.954;2023-05-14T01:35:02;15.40;67.20
37232;DHT22;23125;48.156;15.954;2023-05-14T01:37:29;15.40;67.30
37232;DHT22;23125;48.156;15.954;2023-05-14T01:39:55;15.40;67.30
37232;DHT22;23125;48.156;15.954;2023-05-14T01:42:22;15.40;67.20
37232;DHT22;23125;48.156;15.954;2023-05-14T01:44:48;15.40;66.90
37232;DHT22;23125;48.156;15.954;2023-05-14T01:47:14;15.40;67.10
37232;DHT22;23125;48.156;15.954;2023-05-14T01:49:40;15.40;66.90
37232;DHT22;23125;48.156;15.954;2023-05-14T01:52:06;15.40;67.00
37232;DHT22;23125;48.156;15.954;2023-05-14T01:54:33;15.40;67.00
37232;DHT22;23125;48.156;15.954;2023-05-14T01:56:59;15.40;67.10
37232;DHT22;23125;48.156;15.954;2023-05-14T01:59:25;15.40;67.20
37232;DHT22;23125;48.156;15.954;2023-05-14T02:01:50;15.40;67.20
37232;DHT22;23125;48.156;15.954;2023-05-14T02:04:16;15.40;67.10
37232;DHT22;23125;48.156;15.954;2023-05-14T02:06:43;15.40;67.20
37232;DHT22;23125;48.156;15.954;2023-05-14T02:09:08;15.40;67.20
37232;DHT22;23125;48.156;15.954;2023-05-14T02:11:34;15.40;67.10
37232;DHT22;23125;48.156;15.954;2023-05-14T02:14:00;15.40;67.10
37232;DHT22;23125;48.156;15.954;2023-05-14T02:16:26;15.40;67.10
37232;DHT22;23125;48.156;15.954;2023-05-14T02:18:52;15.40;67.10
37232;DHT22;23125;48.156;15.954;2023-05-14T02:21:18;15.50;67.00
37232;DHT22;23125;48.156;15.954;2023-05-14T02:23:44;15.40;66.80
37232;DHT22;23125;48.156;15.954;2023-05-14T02:26:10;15.40;66.70
37232;DHT22;23125;48.156;15.954;2023-05-14T02:28:37;15.40;66.70
37232;DHT22;23125;48.156;15.954;2023-05-14T02:31:02;15.40;66.70
37232;DHT22;23125;48.156;15.954;2023-05-14T02:33:28;15.40;66.80
37232;DHT22;23125;48.156;15.954;2023-05-14T02:35:54;15.30;66.80
37232;DHT22;23125;48.156;15.954;2023-05-14T02:38:21;15.30;66.70
37232;DHT22;23125;48.156;15.954;2023-05-14T02:40:47;15.40;66.80
37232;DHT22;23125;48.156;15.954;2023-05-14T02:43:12;15.40;66.70
37232;DHT22;23125;48.156;15.954;2023-05-14T02:45:38;15.30;66.80
37232;DHT22;23125;48.156;15.954;2023-05-14T02:48:04;15.30;66.80
37232;DHT22;23125;48.156;15.954;2023-05-14T02:50:30;15.40;66.90
37232;DHT22;23125;48.156;15.954;2023-05-14T02:52:56;15.30;66.60
37232;DHT22;23125;48.156;15.954;2023-05-14T02:55:23;15.30;66.60
37232;DHT22;23125;48.156;15.954;2023-05-14T02:57:51;15.30;66.70
37232;DHT22;23125;48.156;15.954;2023-05-14T03:00:18;15.30;66.80
37232;DHT22;23125;48.156;15.954;2023-05-14T03:02:44;15.30;66.70
37232;DHT22;23125;48.156;15.954;2023-05-14T03:05:10;15.30;66.90
37232;DHT22;23125;48.156;15.954;2023-05-14T03:07:36;15.30;66.90
37232;DHT22;23125;48.156;15.954;2023-05-14T03:10:02;15.30;66.80
37232;DHT22;23125;48.156;15.954;2023-05-14T03:12:28;15.30;66.80
37232;DHT22;23125;48.156;15.954;2023-05-14T03:14:55;15.40;66.90
37232;DHT22;23125;48.156;15.954;2023-05-14T03:17:21;15.40;66.90
37232;DHT22;23125;48.156;15.954;2023-05-14T03:19:47;15.30;66.70
37232;DHT22;23125;48.156;15.954;2023-05-14T03:22:13;15.30;66.50
37232;DHT22;23125;48.156;15.954;2023-05-14T03:24:39;15.30;66.60
37232;DHT22;23125;48.156;15.954;2023-05-14T03:27:06;15.30;66.70
37232;DHT22;23125;48.156;15.954;2023-05-14T03:29:31;15.30;66.70
37232;DHT22;23125;48.156;15.954;2023-05-14T03:31:57;15.30;66.70
37232;DHT22;23125;48.156;15.954;2023-05-14T03:34:23;15.30;66.90
37232;DHT22;23125;48.156;15.954;2023-05-14T03:36:49;15.30;67.00
37232;DHT22;23125;48.156;15.954;2023-05-14T03:39:15;15.30;66.80
37232;DHT22;23125;48.156;15.954;2023-05-14T03:41:45;15.30;66.70
37232;DHT22;23125;48.156;15.954;2023-05-14T03:44:12;15.30;66.80
37232;DHT22;23125;48.156;15.954;2023-05-14T03:46:38;15.30;66.60
37232;DHT22;23125;48.156;15.954;2023-05-14T03:49:03;15.30;66.70
37232;DHT22;23125;48.156;15.954;2023-05-14T03:51:29;15.30;66.70
37232;DHT22;23125;48.156;15.954;2023-05-14T03:53:56;15.20;66.80
37232;DHT22;23125;48.156;15.954;2023-05-14T03:56:23;15.20;66.80
37232;DHT22;23125;48.156;15.954;2023-05-14T03:58:49;15.30;66.70
37232;DHT22;23125;48.156;15.954;2023-05-14T04:01:15;15.30;66.80
37232;DHT22;23125;48.156;15.954;2023-05-14T04:03:41;15.30;67.00
37232;DHT22;23125;48.156;15.954;2023-05-14T04:06:07;15.30;67.10
37232;DHT22;23125;48.156;15.954;2023-05-14T04:08:33;15.30;67.10
37232;DHT22;23125;48.156;15.954;2023-05-14T04:10:59;15.30;66.90
37232;DHT22;23125;48.156;15.954;2023-05-14T04:13:24;15.30;66.80
37232;DHT22;23125;48.156;15.954;2023-05-14T04:15:50;15.30;66.80
37232;DHT22;23125;48.156;15.954;2023-05-14T04:18:16;15.40;67.00
37232;DHT22;23125;48.156;15.954;2023-05-14T04:20:43;15.40;66.90
37232;DHT22;23125;48.156;15.954;2023-05-14T04:23:09;15.30;66.70
37232;DHT22;23125;48.156;15.954;2023-05-14T04:25:34;15.40;66.90
37232;DHT22;23125;48.156;15.954;2023-05-14T04:28:00;15.40;66.70
37232;DHT22;23125;48.156;15.954;2023-05-14T04:30:26;15.40;66.90
37232;DHT22;23125;48.156;15.954;2023-05-14T04:32:52;15.40;66.90
37232;DHT22;23125;48.156;15.954;2023-05-14T04:35:19;15.40;66.80
37232;DHT22;23125;48.156;15.954;2023-05-14T04:37:45;15.50;66.90
37232;DHT22;23125;48.156;15.954;2023-05-14T04:40:11;15.50;66.90
37232;DHT22;23125;48.156;15.954;2023-05-14T04:42:38;15.50;66.80
37232;DHT22;23125;48.156;15.954;2023-05-14T04:45:05;15.50;66.80
37232;DHT22;23125;48.156;15.954;2023-05-14T04:47:31;15.50;66.80
37232;DHT22;23125;48.156;15.954;2023-05-14T04:49:57;15.60;66.80
37232;DHT22;23125;48.156;15.954;2023-05-14T04:52:23;15.60;66.80
37232;DHT22;23125;48.156;15.954;2023-05-14T04:54:49;15.60;66.70
37232;DHT22;23125;48.156;15.954;2023-05-14T04:57:15;15.60;66.70
37232;DHT22;23125;48.156;15.954;2023-05-14T04:59:41;15.60;66.60
37232;DHT22;23125;48.156;15.954;2023-05-14T05:02:07;15.60;66.40
37232;DHT22;23125;48.156;15.954;2023-05-14T05:04:33;15.60;66.30
37232;DHT22;23125;48.156;15.954;2023-05-14T05:06:59;15.60;66.60
37232;DHT22;23125;48.156;15.954;2023-05-14T05:09:25;15.70;66.60
37232;DHT22;23125;48.156;15.954;2023-05-14T05:11:51;15.70;66.50
37232;DHT22;23125;48.156;15.954;2023-05-14T05:14:17;15.70;66.50
37232;DHT22;23125;48.156;15.954;2023-05-14T05:16:42;15.70;66.40
37232;DHT22;23125;48.156;15.954;2023-05-14T05:19:09;15.70;66.50
37232;DHT22;23125;48.156;15.954;2023-05-14T05:21:35;15.80;66.50
37232;DHT22;23125;48.156;15.954;2023-05-14T05:24:04;15.80;66.40
37232;DHT22;23125;48.156;15.954;2023-05-14T05:26:30;15.80;66.40
37232;DHT22;23125;48.156;15.954;2023-05-14T05:28:56;15.80;66.20
37232;DHT22;23125;48.156;15.954;2023-05-14T05:31:22;15.80;66.10
37232;DHT22;23125;48.156;15.954;2023-05-14T05:33:48;15.80;66.00
37232;DHT22;23125;48.156;15.954;2023-05-14T05:36:14;15.80;66.00
37232;DHT22;23125;48.156;15.954;2023-05-14T05:38:40;15.80;66.00
37232;DHT22;23125;48.156;15.954;2023-05-14T05:41:05;15.80;66.10
37232;DHT22;23125;48.156;15.954;2023-05-14T05:43:32;15.80;66.20
37232;DHT22;23125;48.156;15.954;2023-05-14T05:45:59;15.80;66.00
37232;DHT22;23125;48.156;15.954;2023-05-14T05:48:25;15.80;65.80
37232;DHT22;23125;48.156;15.954;2023-05-14T05:50:51;15.80;66.10
37232;DHT22;23125;48.156;15.954;2023-05-14T05:53:17;15.80;66.20
37232;DHT22;23125;48.156;15.954;2023-05-14T05:55:43;15.90;66.40
37232;DHT22;23125;48.156;15.954;2023-05-14T05:58:09;15.90;66.40
37232;DHT22;23125;48.156;15.954;2023-05-14T06:00:35;15.90;66.10
37232;DHT22;23125;48.156;15.954;2023-05-14T06:03:01;16.00;66.10
37232;DHT22;23125;48.156;15.954;2023-05-14T06:05:27;15.90;65.90
37232;DHT22;23125;48.156;15.954;2023-05-14T06:07:53;15.90;65.80
37232;DHT22;23125;48.156;15.954;2023-05-14T06:10:19;16.00;65.90
37232;DHT22;23125;48.156;15.954;2023-05-14T06:12:45;15.90;65.80
37232;DHT22;23125;48.156;15.954;2023-05-14T06:15:11;16.00;65.70
37232;DHT22;23125;48.156;15.954;2023-05-14T06:17:37;15.90;65.90
37232;DHT22;23125;48.156;15.954;2023-05-14T06:20:04;16.00;66.00
37232;DHT22;23125;48.156;15.954;2023-05-14T06:22:30;15.90;66.00
37232;DHT22;23125;48.156;15.954;2023-05-14T06:24:56;16.00;66.00
37232;DHT22;23125;48.156;15.954;2023-05-14T06:27:22;16.10;66.10
37232;DHT22;23125;48.156;15.954;2023-05-14T06:29:48;16.10;65.90
37232;DHT22;23125;48.156;15.954;2023-05-14T06:32:14;16.10;65.70
37232;DHT22;23125;48.156;15.954;2023-05-14T06:34:41;16.10;65.50
37232;DHT22;23125;48.156;15.954;2023-05-14T06:37:07;16.20;65.60
37232;DHT22;23125;48.156;15.954;2023-05-14T06:39:37;16.10;65.20
37232;DHT22;23125;48.156;15.954;2023-05-14T06:42:04;16.10;65.20
37232;DHT22;23125;48.156;15.954;2023-05-14T06:44:29;16.10;65.50
37232;DHT22;23125;48.156;15.954;2023-05-14T06:46:55;16.10;65.40
37232;DHT22;23125;48.156;15.954;2023-05-14T06:49:22;16.20;65.30
37232;DHT22;23125;48.156;15.954;2023-05-14T06:51:48;16.10;64.80
37232;DHT22;23125;48.156;15.954;2023-05-14T06:54:13;16.10;64.80
37232;DHT22;23125;48.156;15.954;2023-05-14T06:56:39;16.10;64.60
37232;DHT22;23125;48.156;15.954;2023-05-14T06:59:05;16.00;64.60
37232;DHT22;23125;48.156;15.954;2023-05-14T07:01:31;16.00;64.70
37232;DHT22;23125;48.156;15.954;2023-05-14T07:03:57;16.00;64.70
37232;DHT22;23125;48.156;15.954;2023-05-14T07:06:23;16.00;64.50
37232;DHT22;23125;48.156;15.954;2023-05-14T07:08:48;15.90;64.60
37232;DHT22;23125;48.156;15.954;2023-05-14T07:11:14;15.90;64.50
37232;DHT22;23125;48.156;15.954;2023-05-14T07:13:41;15.90;64.60
37232;DHT22;23125;48.156;15.954;2023-05-14T07:16:07;15.90;64.70
37232;DHT22;23125;48.156;15.954;2023-05-14T07:18:35;15.90;65.00
37232;DHT22;23125;48.156;15.954;2023-05-14T07:21:00;15.90;64.80
37232;DHT22;23125;48.156;15.954;2023-05-14T07:23:26;15.90;65.00
37232;DHT22;23125;48.156;15.954;2023-05-14T07:25:52;15.90;64.90
37232;DHT22;23125;48.156;15.954;2023-05-14T07:28:18;15.90;64.60
37232;DHT22;23125;48.156;15.954;2023-05-14T07:30:44;15.90;64.50
37232;DHT22;23125;48.156;15.954;2023-05-14T07:33:10;15.90;64.80
37232;DHT22;23125;48.156;15.954;2023-05-14T07:35:36;15.90;64.90
37232;DHT22;23125;48.156;15.954;2023-05-14T07:38:03;15.90;65.00
37232;DHT22;23125;48.156;15.954;2023-05-14T07:40:30;15.90;65.00
37232;DHT22;23125;48.156;15.954;2023-05-14T07:42:56;15.90;64.70
37232;DHT22;23125;48.156;15.954;2023-05-14T07:45:22;15.90;64.60
37232;DHT22;23125;48.156;15.954;2023-05-14T07:47:48;15.90;64.40
37232;DHT22;23125;48.156;15.954;2023-05-14T07:50:17;15.90;64.80
37232;DHT22;23125;48.156;15.954;2023-05-14T07:52:46;16.00;65.10
37232;DHT22;23125;48.156;15.954;2023-05-14T07:55:12;16.00;65.30
37232;DHT22;23125;48.156;15.954;2023-05-14T07:57:38;16.10;65.10
37232;DHT22;23125;48.156;15.954;2023-05-14T08:00:05;16.10;64.60
37232;DHT22;23125;48.156;15.954;2023-05-14T08:02:34;16.10;64.40
37232;DHT22;23125;48.156;15.954;2023-05-14T08:05:00;16.10;64.60
37232;DHT22;23125;48.156;15.954;2023-05-14T08:07:26;16.10;64.40
37232;DHT22;23125;48.156;15.954;2023-05-14T08:09:55;16.00;64.20
37232;DHT22;23125;48.156;15.954;2023-05-14T08:12:21;16.00;64.60
37232;DHT22;23125;48.156;15.954;2023-05-14T08:14:47;16.00;64.50
37232;DHT22;23125;48.156;15.954;2023-05-14T08:17:13;16.00;64.40
37232;DHT22;23125;48.156;15.954;2023-05-14T08:19:39;16.00;64.30
37232;DHT22;23125;48.156;15.954;2023-05-14T08:22:05;16.00;64.50
37232;DHT22;23125;48.156;15.954;2023-05-14T08:24:33;16.00;65.00
37232;DHT22;23125;48.156;15.954;2023-05-14T08:26:59;16.00;64.50
37232;DHT22;23125;48.156;15.954;2023-05-14T08:29:25;16.10;64.50
37232;DHT22;23125;48.156;15.954;2023-05-14T08:31:51;16.00;64.70
37232;DHT22;23125;48.156;15.954;2023-05-14T08:34:17;16.10;64.60
37232;DHT22;23125;48.156;15.954;2023-05-14T08:36:43;16.00;64.00
37232;DHT22;23125;48.156;15.954;2023-05-14T08:39:08;16.00;64.00
37232;DHT22;23125;48.156;15.954;2023-05-14T08:41:35;16.00;64.50
37232;DHT22;23125;48.156;15.954;2023-05-14T08:46:35;15.90;63.90
37232;DHT22;23125;48.156;15.954;2023-05-14T08:49:45;15.80;64.00
37232;DHT22;23125;48.156;15.954;2023-05-14T08:52:12;15.80;64.60
37232;DHT22;23125;48.156;15.954;2023-05-14T08:54:39;15.90;64.60
37232;DHT22;23125;48.156;15.954;2023-05-14T08:57:07;15.80;64.40
37232;DHT22;23125;48.156;15.954;2023-05-14T08:59:34;15.90;64.40
37232;DHT22;23125;48.156;15.954;2023-05-14T09:02:01;15.80;64.10
37232;DHT22;23125;48.156;15.954;2023-05-14T09:04:30;15.80;63.70
37232;DHT22;23125;48.156;15.954;2023-05-14T09:06:59;15.70;64.30
37232;DHT22;23125;48.156;15.954;2023-05-14T09:09:27;15.70;64.20
37232;DHT22;23125;48.156;15.954;2023-05-14T09:11:53;15.70;64.80
37232;DHT22;23125;48.156;15.954;2023-05-14T09:14:21;15.80;65.20
37232;DHT22;23125;48.156;15.954;2023-05-14T09:16:48;15.80;65.10
37232;DHT22;23125;48.156;15.954;2023-05-14T09:19:15;15.80;64.70
37232;DHT22;23125;48.156;15.954;2023-05-14T09:21:47;15.80;64.80
37232;DHT22;23125;48.156;15.954;2023-05-14T09:24:26;15.80;64.80
37232;DHT22;23125;48.156;15.954;2023-05-14T09:26:57;15.90;64.80
37232;DHT22;23125;48.156;15.954;2023-05-14T09:29:24;15.90;64.30
37232;DHT22;23125;48.156;15.954;2023-05-14T09:31:51;15.90;64.60
37232;DHT22;23125;48.156;15.954;2023-05-14T09:34:28;15.90;64.80
37232;DHT22;23125;48.156;15.954;2023-05-14T09:37:01;15.90;64.40
37232;DHT22;23125;48.156;15.954;2023-05-14T09:39:28;15.90;64.10
37232;DHT22;23125;48.156;15.954;2023-05-14T09:41:54;15.90;64.10
37232;DHT22;23125;48.156;15.954;2023-05-14T09:44:21;15.90;64.40
37232;DHT22;23125;48.156;15.954;2023-05-14T09:46:48;15.90;64.50
37232;DHT22;23125;48.156;15.954;2023-05-14T09:49:15;15.90;64.40
37232;DHT22;23125;48.156;15.954;2023-05-14T09:51:41;15.90;64.60
37232;DHT22;23125;48.156;15.954;2023-05-14T09:54:07;15.90;64.40
37232;DHT22;23125;48.156;15.954;2023-05-14T09:56:35;15.90;64.40
37232;DHT22;23125;48.156;15.954;2023-05-14T09:59:02;15.90;63.80
37232;DHT22;23125;48.156;15.954;2023-05-14T10:01:29;15.90;64.40
37232;DHT22;23125;48.156;15.954;2023-05-14T10:03:55;15.90;64.60
37232;DHT22;23125;48.156;15.954;2023-05-14T10:06:28;16.00;64.50
37232;DHT22;23125;48.156;15.954;2023-05-14T10:08:56;15.90;64.40
37232;DHT22;23125;48.156;15.954;2023-05-14T10:11:24;16.00;64.70
37232;DHT22;23125;48.156;15.954;2023-05-14T10:16:27;16.10;64.70
37232;DHT22;23125;48.156;15.954;2023-05-14T10:19:02;16.10;64.90
37232;DHT22;23125;48.156;15.954;2023-05-14T10:21:35;16.10;64.40
37232;DHT22;23125;48.156;15.954;2023-05-14T10:24:03;16.20;64.60
37232;DHT22;23125;48.156;15.954;2023-05-14T10:26:31;16.20;64.40
37232;DHT22;23125;48.156;15.954;2023-05-14T10:28:58;16.20;64.50
37232;DHT22;23125;48.156;15.954;2023-05-14T10:31:47;16.20;64.40
37232;DHT22;23125;48.156;15.954;2023-05-14T10:34:35;16.30;64.70
37232;DHT22;23125;48.156;15.954;2023-05-14T10:37:13;16.40;64.80
37232;DHT22;23125;48.156;15.954;2023-05-14T10:42:07;16.30;63.90
37232;DHT22;23125;48.156;15.954;2023-05-14T10:44:35;16.30;64.20
37232;DHT22;23125;48.156;15.954;2023-05-14T10:47:05;16.40;64.60
37232;DHT22;23125;48.156;15.954;2023-05-14T10:49:33;16.40;64.50
37232;DHT22;23125;48.156;15.954;2023-05-14T10:51:59;16.40;64.30
37232;DHT22;23125;48.156;15.954;2023-05-14T10:54:27;16.50;64.40
37232;DHT22;23125;48.156;15.954;2023-05-14T10:56:53;16.50;64.40
37232;DHT22;23125;48.156;15.954;2023-05-14T10:59:26;16.50;64.20
37232;DHT22;23125;48.156;15.954;2023-05-14T11:01:55;16.50;64.20
37232;DHT22;23125;48.156;15.954;2023-05-14T11:04:24;16.50;63.70
37232;DHT22;23125;48.156;15.954;2023-05-14T11:06:52;16.50;64.00
37232;DHT22;23125;48.156;15.954;2023-05-14T11:09:20;16.50;64.20
37232;DHT22;23125;48.156;15.954;2023-05-14T11:11:47;16.50;64.30
37232;DHT22;23125;48.156;15.954;2023-05-14T11:14:13;16.60;64.20
37232;DHT22;23125;48.156;15.954;2023-05-14T11:16:39;16.60;64.00
37232;DHT22;23125;48.156;15.954;2023-05-14T11:19:06;16.50;63.80
37232;DHT22;23125;48.156;15.954;2023-05-14T11:21:32;16.50;63.90
37232;DHT22;23125;48.156;15.954;2023-05-14T11:24:01;16.60;64.20
37232;DHT22;23125;48.156;15.954;2023-05-14T11:26:28;16.60;64.00
37232;DHT22;23125;48.156;15.954;2023-05-14T11:28:54;16.60;64.20
37232;DHT22;23125;48.156;15.954;2023-05-14T11:31:21;16.70;64.30
37232;DHT22;23125;48.156;15.954;2023-05-14T11:33:47;16.70;64.10
37232;DHT22;23125;48.156;15.954;2023-05-14T11:36:12;16.70;64.00
37232;DHT22;23125;48.156;15.954;2023-05-14T11:38:46;16.70;64.10
37232;DHT22;23125;48.156;15.954;2023-05-14T11:41:17;16.80;64.80
37232;DHT22;23125;48.156;15.954;2023-05-14T11:43:45;16.70;63.70
37232;DHT22;23125;48.156;15.954;2023-05-14T11:46:16;16.70;63.30
37232;DHT22;23125;48.156;15.954;2023-05-14T11:48:43;16.70;64.00
37232;DHT22;23125;48.156;15.954;2023-05-14T11:51:08;16.80;64.30
37232;DHT22;23125;48.156;15.954;2023-05-14T11:53:34;16.80;64.30
37232;DHT22;23125;48.156;15.954;2023-05-14T11:56:01;16.90;64.10
37232;DHT22;23125;48.156;15.954;2023-05-14T11:58:31;16.90;63.90
37232;DHT22;23125;48.156;15.954;2023-05-14T12:00:58;16.80;63.50
37232;DHT22;23125;48.156;15.954;2023-05-14T12:03:24;16.80;63.30
37232;DHT22;23125;48.156;15.954;2023-05-14T12:06:09;16.70;63.20
37232;DHT22;23125;48.156;15.954;2023-05-14T12:08:36;16.70;63.50
37232;DHT22;23125;48.156;15.954;2023-05-14T12:11:02;16.80;63.90
37232;DHT22;23125;48.156;15.954;2023-05-14T12:13:29;16.80;63.90
37232;DHT22;23125;48.156;15.954;2023-05-14T12:15:57;16.80;64.00
37232;DHT22;23125;48.156;15.954;2023-05-14T12:18:25;16.90;64.30
37232;DHT22;23125;48.156;15.954;2023-05-14T12:20:53;16.90;64.10
37232;DHT22;23125;48.156;15.954;2023-05-14T12:23:29;16.90;64.30
37232;DHT22;23125;48.156;15.954;2023-05-14T12:26:04;17.00;64.10
37232;DHT22;23125;48.156;15.954;2023-05-14T12:28:31;17.00;63.80
37232;DHT22;23125;48.156;15.954;2023-05-14T12:30:58;17.00;64.00
37232;DHT22;23125;48.156;15.954;2023-05-14T12:33:27;17.10;64.80
37232;DHT22;23125;48.156;15.954;2023-05-14T12:35:54;17.10;63.90
37232;DHT22;23125;48.156;15.954;2023-05-14T12:38:30;17.10;63.50
37232;DHT22;23125;48.156;15.954;2023-05-14T12:40:56;17.00;63.40
37232;DHT22;23125;48.156;15.954;2023-05-14T12:43:22;17.10;63.20
37232;DHT22;23125;48.156;15.954;2023-05-14T12:45:48;17.00;63.30
37232;DHT22;23125;48.156;15.954;2023-05-14T12:48:13;17.00;62.80
37232;DHT22;23125;48.156;15.954;2023-05-14T12:50:39;16.90;62.90
37232;DHT22;23125;48.156;15.954;2023-05-14T12:53:05;16.80;62.90
37232;DHT22;23125;48.156;15.954;2023-05-14T12:55:31;16.80;62.90
37232;DHT22;23125;48.156;15.954;2023-05-14T12:57:58;16.70;62.80
37232;DHT22;23125;48.156;15.954;2023-05-14T13:00:24;16.60;63.10
37232;DHT22;23125;48.156;15.954;2023-05-14T13:02:51;16.60;63.30
37232;DHT22;23125;48.156;15.954;2023-05-14T13:05:17;16.60;63.40
37232;DHT22;23125;48.156;15.954;2023-05-14T13:07:43;16.60;63.70
37232;DHT22;23125;48.156;15.954;2023-05-14T13:10:09;16.50;63.70
37232;DHT22;23125;48.156;15.954;2023-05-14T13:12:36;16.50;63.50
37232;DHT22;23125;48.156;15.954;2023-05-14T13:15:02;16.50;63.70
37232;DHT22;23125;48.156;15.954;2023-05-14T13:17:28;16.50;63.90
37232;DHT22;23125;48.156;15.954;2023-05-14T13:19:53;16.50;64.10
37232;DHT22;23125;48.156;15.954;2023-05-14T13:22:19;16.50;64.30
37232;DHT22;23125;48.156;15.954;2023-05-14T13:24:45;16.50;64.40
37232;DHT22;23125;48.156;15.954;2023-05-14T13:27:11;16.50;64.10
37232;DHT22;23125;48.156;15.954;2023-05-14T13:29:37;16.50;64.10
37232;DHT22;23125;48.156;15.954;2023-05-14T13:32:03;16.50;63.90
37232;DHT22;23125;48.156;15.954;2023-05-14T13:34:29;16.50;64.10
37232;DHT22;23125;48.156;15.954;2023-05-14T13:36:55;16.50;64.40
37232;DHT22;23125;48.156;15.954;2023-05-14T13:39:22;16.50;64.30
37232;DHT22;23125;48.156;15.954;2023-05-14T13:41:52;16.50;64.30
37232;DHT22;23125;48.156;15.954;2023-05-14T13:44:20;16.50;64.30
37232;DHT22;23125;48.156;15.954;2023-05-14T13:46:47;16.50;64.20
37232;DHT22;23125;48.156;15.954;2023-05-14T13:49:12;16.50;64.20
37232;DHT22;23125;48.156;15.954;2023-05-14T13:51:38;16.50;64.20
37232;DHT22;23125;48.156;15.954;2023-05-14T13:54:04;16.50;64.40
37232;DHT22;23125;48.156;15.954;2023-05-14T13:56:30;16.40;64.40
37232;DHT22;23125;48.156;15.954;2023-05-14T13:58:56;16.40;64.50
37232;DHT22;23125;48.156;15.954;2023-05-14T14:01:22;16.40;64.40
37232;DHT22;23125;48.156;15.954;2023-05-14T14:03:48;16.40;64.40
37232;DHT22;23125;48.156;15.954;2023-05-14T14:06:13;16.40;64.50
37232;DHT22;23125;48.156;15.954;2023-05-14T14:08:39;16.40;64.40
37232;DHT22;23125;48.156;15.954;2023-05-14T14:11:05;16.40;64.50
37232;DHT22;23125;48.156;15.954;2023-05-14T14:13:31;16.40;64.50
37232;DHT22;23125;48.156;15.954;2023-05-14T14:15:57;16.40;64.80
37232;DHT22;23125;48.156;15.954;2023-05-14T14:18:23;16.40;64.60
37232;DHT22;23125;48.156;15.954;2023-05-14T14:20:49;16.30;64.30
37232;DHT22;23125;48.156;15.954;2023-05-14T14:23:15;16.30;64.30
37232;DHT22;23125;48.156;15.954;2023-05-14T14:25:41;16.30;64.50
37232;DHT22;23125;48.156;15.954;2023-05-14T14:28:07;16.20;64.20
37232;DHT22;23125;48.156;15.954;2023-05-14T14:30:32;16.20;64.00
37232;DHT22;23125;48.156;15.954;2023-05-14T14:32:59;16.10;64.40
37232;DHT22;23125;48.156;15.954;2023-05-14T14:35:26;16.10;64.70
37232;DHT22;23125;48.156;15.954;2023-05-14T14:37:52;16.20;65.00
37232;DHT22;23125;48.156;15.954;2023-05-14T14:40:20;16.10;64.90
37232;DHT22;23125;48.156;15.954;2023-05-14T14:42:48;16.10;64.90
37232;DHT22;23125;48.156;15.954;2023-05-14T14:45:14;16.10;65.90
37232;DHT22;23125;48.156;15.954;2023-05-14T14:47:44;16.10;65.00
37232;DHT22;23125;48.156;15.954;2023-05-14T14:50:11;16.10;64.80
37232;DHT22;23125;48.156;15.954;2023-05-14T14:52:39;16.10;65.00
37232;DHT22;23125;48.156;15.954;2023-05-14T14:55:08;16.10;65.10
37232;DHT22;23125;48.156;15.954;2023-05-14T14:57:34;16.10;65.20
37232;DHT22;23125;48.156;15.954;2023-05-14T15:00:00;16.10;65.40
37232;DHT22;23125;48.156;15.954;2023-05-14T15:02:27;16.10;65.30
37232;DHT22;23125;48.156;15.954;2023-05-14T15:04:53;16.10;65.30
37232;DHT22;23125;48.156;15.954;2023-05-14T15:07:19;16.10;65.30
37232;DHT22;23125;48.156;15.954;2023-05-14T15:09:46;16.10;65.50
37232;DHT22;23125;48.156;15.954;2023-05-14T15:12:12;16.10;65.50
37232;DHT22;23125;48.156;15.954;2023-05-14T15:14:39;16.20;65.50
37232;DHT22;23125;48.156;15.954;2023-05-14T15:17:05;16.20;65.30
37232;DHT22;23125;48.156;15.954;2023-05-14T15:19:31;16.10;64.80
37232;DHT22;23125;48.156;15.954;2023-05-14T15:21:57;16.10;64.90
37232;DHT22;23125;48.156;15.954;2023-05-14T15:24:23;16.00;65.10
37232;DHT22;23125;48.156;15.954;2023-05-14T15:26:51;16.00;65.20
37232;DHT22;23125;48.156;15.954;2023-05-14T15:29:17;16.00;65.30
37232;DHT22;23125;48.156;15.954;2023-05-14T15:31:44;16.00;65.60